| time (UTC) | temp C | wind direction | speed KPH | gust KPH | rain 1hr cm | rain 24hr cm | rain mn cm | humidity % | barometer mb |
| 20260508040020 | 15 | 56 | 6.4 | 12.9 | 0.00 | 0.00 | 0.00 | 77 | 1010.8 |
| 20260508035029 | 15 | 54 | 6.4 | 11.3 | 0.00 | 0.00 | 0.00 | 76 | 1010.8 |
| 20260508034040 | 15 | 56 | 6.4 | 14.5 | 0.00 | 0.00 | 0.00 | 75 | 1010.8 |
| 20260508033030 | 15 | 63 | 6.4 | 12.9 | 0.00 | 0.03 | 0.00 | 74 | 1010.9 |
| 20260508032022 | 15 | 63 | 6.4 | 11.3 | 0.00 | 0.03 | 0.00 | 73 | 1011.1 |
| 20260508031051 | 15 | 58 | 8.0 | 12.9 | 0.00 | 0.03 | 0.00 | 73 | 1011.1 |
| 20260508030022 | 15 | 54 | 6.4 | 11.3 | 0.00 | 0.03 | 0.00 | 73 | 1011.2 |
| 20260508025031 | 15 | 45 | 6.4 | 9.7 | 0.00 | 0.03 | 0.00 | 73 | 1011.1 |
| 20260508024022 | 15 | 41 | 6.4 | 9.7 | 0.00 | 0.03 | 0.00 | 73 | 1011.1 |
| 20260508023030 | 15 | 52 | 6.4 | 9.7 | 0.00 | 0.03 | 0.00 | 73 | 1011.3 |
| 20260508022041 | 15 | 49 | 6.4 | 12.9 | 0.00 | 0.03 | 0.00 | 73 | 1011.4 |
| 20260508021031 | 15 | 57 | 6.4 | 11.3 | 0.00 | 0.03 | 0.00 | 73 | 1011.6 |
| 20260508020021 | 15 | 54 | 6.4 | 12.9 | 0.00 | 0.03 | 0.00 | 74 | 1011.6 |
| 20260508015031 | 15 | 47 | 6.4 | 9.7 | 0.00 | 0.03 | 0.00 | 74 | 1011.5 |
| 20260508014022 | 15 | 52 | 6.4 | 11.3 | 0.00 | 0.03 | 0.00 | 75 | 1011.6 |
| 20260508013031 | 15 | 69 | 4.8 | 11.3 | 0.00 | 0.05 | 0.00 | 75 | 1011.8 |
| 20260508012023 | 15 | 65 | 4.8 | 9.7 | 0.00 | 0.05 | 0.00 | 76 | 1011.8 |
| 20260508011030 | 15 | 70 | 6.4 | 11.3 | 0.00 | 0.05 | 0.00 | 76 | 1011.9 |
| 20260508010022 | 15 | 80 | 4.8 | 9.7 | 0.00 | 0.05 | 0.00 | 75 | 1011.9 |
| 20260508005031 | 15 | 69 | 4.8 | 9.7 | 0.00 | 0.05 | 0.00 | 75 | 1012.0 |
| 20260508004022 | 15 | 60 | 6.4 | 9.7 | 0.00 | 0.05 | 0.00 | 76 | 1012.1 |
| 20260508003031 | 14 | 80 | 4.8 | 9.7 | 0.00 | 0.05 | 0.00 | 75 | 1012.2 |
| 20260508002022 | 15 | 87 | 6.4 | 11.3 | 0.00 | 0.05 | 0.00 | 75 | 1012.2 |
| 20260508001031 | 15 | 83 | 6.4 | 11.3 | 0.00 | 0.05 | 0.00 | 75 | 1012.5 |
| 20260508000022 | 15 | 82 | 6.4 | 11.3 | 0.00 | 0.05 | 0.00 | 74 | 1012.6 |
| 20260507235030 | 15 | 78 | 8.0 | 14.5 | 0.00 | 0.05 | 0.00 | 74 | 1012.7 |
| 20260507234022 | 15 | 72 | 8.0 | 12.9 | 0.00 | 0.05 | 0.00 | 73 | 1012.9 |
| 20260507233031 | 15 | 70 | 8.0 | 16.1 | 0.00 | 0.05 | 0.00 | 73 | 1013.2 |
| 20260507232042 | 15 | 65 | 6.4 | 11.3 | 0.00 | 0.05 | 0.00 | 72 | 1013.2 |
| 20260507231030 | 15 | 63 | 6.4 | 12.9 | 0.00 | 0.05 | 0.00 | 72 | 1013.5 |
| 20260507230022 | 15 | 68 | 6.4 | 11.3 | 0.00 | 0.05 | 0.00 | 71 | 1013.5 |
| 20260507225031 | 15 | 69 | 6.4 | 12.9 | 0.00 | 0.05 | 0.00 | 70 | 1013.8 |
| 20260507224022 | 15 | 61 | 6.4 | 11.3 | 0.00 | 0.05 | 0.00 | 70 | 1013.8 |
| 20260507223032 | 15 | 66 | 6.4 | 12.9 | 0.00 | 0.05 | 0.00 | 70 | 1013.9 |
| 20260507222022 | 15 | 72 | 4.8 | 9.7 | 0.00 | 0.05 | 0.00 | 70 | 1013.8 |
| 20260507221031 | 15 | 69 | 4.8 | 11.3 | 0.00 | 0.05 | 0.00 | 70 | 1013.8 |
| 20260507220021 | 15 | 81 | 6.4 | 11.3 | 0.00 | 0.05 | 0.00 | 69 | 1013.9 |
| 20260507215030 | 15 | 70 | 6.4 | 12.9 | 0.00 | 0.05 | 0.05 | 68 | 1013.8 |
| 20260507214022 | 15 | 75 | 6.4 | 11.3 | 0.00 | 0.05 | 0.05 | 67 | 1013.8 |
| 20260507213031 | 15 | 72 | 8.0 | 12.9 | 0.00 | 0.05 | 0.05 | 65 | 1013.9 |
| 20260507212022 | 15 | 65 | 6.4 | 12.9 | 0.00 | 0.05 | 0.05 | 65 | 1013.8 |
| 20260507211031 | 15 | 73 | 6.4 | 14.5 | 0.00 | 0.05 | 0.05 | 64 | 1013.9 |
| 20260507210023 | 15 | 73 | 6.4 | 11.3 | 0.00 | 0.05 | 0.05 | 66 | 1014.0 |
| 20260507205051 | 15 | 77 | 6.4 | 9.7 | 0.00 | 0.05 | 0.05 | 65 | 1014.0 |
| 20260507204023 | 15 | 84 | 4.8 | 9.7 | 0.00 | 0.05 | 0.05 | 64 | 1014.0 |
| 20260507203031 | 15 | 84 | 6.4 | 9.7 | 0.00 | 0.05 | 0.05 | 62 | 1014.2 |
| 20260507202023 | 15 | 82 | 6.4 | 11.3 | 0.00 | 0.05 | 0.05 | 60 | 1014.3 |
| 20260507201031 | 16 | 85 | 6.4 | 11.3 | 0.00 | 0.05 | 0.05 | 58 | 1014.3 |
| 20260507200022 | 16 | 80 | 6.4 | 9.7 | 0.00 | 0.05 | 0.05 | 58 | 1014.5 |
| 20260507195031 | 16 | 79 | 6.4 | 9.7 | 0.00 | 0.05 | 0.05 | 60 | 1014.2 |
| 20260507194022 | 16 | 66 | 6.4 | 9.7 | 0.00 | 0.05 | 0.05 | 63 | 1014.4 |
| 20260507193051 | 16 | 66 | 3.2 | 4.8 | 0.00 | 0.05 | 0.05 | 64 | 1014.5 |
| 20260507192022 | 16 | 81 | 4.8 | 6.4 | 0.00 | 0.05 | 0.05 | 63 | 1014.3 |
| 20260507191031 | 17 | 86 | 8.0 | 12.9 | 0.00 | 0.05 | 0.05 | 61 | 1014.3 |
| 20260507190022 | 16 | 63 | 4.8 | 6.4 | 0.00 | 0.05 | 0.05 | 66 | 1014.3 |
| 20260507185030 | 16 | 86 | 3.2 | 4.8 | 0.00 | 0.05 | 0.05 | 67 | 1014.4 |
| 20260507184022 | 16 | 100 | 1.6 | 3.2 | 0.00 | 0.05 | 0.05 | 66 | 1014.4 |
| 20260507183111 | 16 | 0.0 | 3.2 | 0.00 | 0.05 | 0.05 | 65 | 1014.5 | |
| 20260507182020 | 17 | 117 | 3.2 | 4.8 | 0.00 | 0.05 | 0.05 | 64 | 1014.3 |
| 20260507181030 | 17 | 107 | 4.8 | 6.4 | 0.00 | 0.05 | 0.05 | 63 | 1014.2 |
| 20260507180040 | 17 | 136 | 6.4 | 12.9 | 0.00 | 0.05 | 0.05 | 62 | 1014.1 |
| 20260507175029 | 17 | 149 | 9.7 | 16.1 | 0.00 | 0.05 | 0.05 | 60 | 1014.3 |
| 20260507174020 | 17 | 151 | 8.0 | 12.9 | 0.00 | 0.05 | 0.05 | 61 | 1014.1 |
| 20260507173030 | 17 | 146 | 12.9 | 17.7 | 0.00 | 0.05 | 0.05 | 60 | 1014.2 |
| 20260507172020 | 17 | 148 | 11.3 | 17.7 | 0.00 | 0.05 | 0.05 | 59 | 1014.1 |
| 20260507171049 | 18 | 147 | 12.9 | 17.7 | 0.00 | 0.05 | 0.05 | 58 | 1014.3 |
| 20260507170020 | 18 | 149 | 14.5 | 20.9 | 0.00 | 0.05 | 0.05 | 57 | 1014.3 |
| 20260507165050 | 18 | 150 | 14.5 | 20.9 | 0.00 | 0.05 | 0.05 | 55 | 1014.3 |
| 20260507164040 | 18 | 150 | 11.3 | 17.7 | 0.00 | 0.05 | 0.05 | 54 | 1014.3 |
| 20260507163029 | 19 | 157 | 16.1 | 22.5 | 0.00 | 0.05 | 0.05 | 51 | 1014.3 |
| 20260507162020 | 19 | 151 | 17.7 | 27.4 | 0.00 | 0.05 | 0.05 | 50 | 1014.2 |
| 20260507161029 | 19 | 149 | 16.1 | 25.7 | 0.00 | 0.05 | 0.05 | 50 | 1014.2 |
| 20260507160021 | 19 | 151 | 16.1 | 25.7 | 0.00 | 0.05 | 0.05 | 51 | 1014.2 |
| 20260507155029 | 19 | 147 | 16.1 | 22.5 | 0.00 | 0.05 | 0.05 | 52 | 1014.2 |
| 20260507154020 | 19 | 148 | 17.7 | 24.1 | 0.00 | 0.05 | 0.05 | 51 | 1014.4 |
| 20260507153029 | 20 | 146 | 17.7 | 25.7 | 0.00 | 0.05 | 0.05 | 51 | 1014.4 |
| 20260507152020 | 20 | 161 | 19.3 | 25.7 | 0.00 | 0.05 | 0.05 | 52 | 1014.5 |
| 20260507151028 | 20 | 150 | 17.7 | 27.4 | 0.00 | 0.05 | 0.05 | 50 | 1014.8 |
| 20260507150020 | 20 | 162 | 17.7 | 27.4 | 0.00 | 0.05 | 0.05 | 51 | 1014.8 |
| 20260507145049 | 20 | 167 | 19.3 | 27.4 | 0.00 | 0.05 | 0.05 | 51 | 1014.8 |
| 20260507144020 | 19 | 165 | 17.7 | 25.7 | 0.00 | 0.05 | 0.05 | 53 | 1014.9 |
| 20260507143030 | 20 | 162 | 17.7 | 27.4 | 0.00 | 0.05 | 0.05 | 50 | 1014.8 |
| 20260507142040 | 20 | 164 | 19.3 | 27.4 | 0.00 | 0.05 | 0.05 | 48 | 1015.1 |
| 20260507141029 | 20 | 166 | 19.3 | 27.4 | 0.00 | 0.05 | 0.05 | 44 | 1015.0 |
| 20260507140020 | 20 | 166 | 20.9 | 30.6 | 0.00 | 0.05 | 0.05 | 40 | 1014.9 |
| 20260507135030 | 20 | 170 | 20.9 | 27.4 | 0.00 | 0.05 | 0.05 | 42 | 1015.1 |
| 20260507134020 | 21 | 172 | 20.9 | 35.4 | 0.00 | 0.05 | 0.05 | 43 | 1015.2 |
| 20260507133029 | 20 | 177 | 20.9 | 33.8 | 0.00 | 0.05 | 0.05 | 45 | 1015.1 |
| 20260507132042 | 20 | 185 | 20.9 | 37.0 | 0.00 | 0.05 | 0.05 | 46 | 1015.2 |
| 20260507131029 | 20 | 167 | 24.1 | 33.8 | 0.00 | 0.05 | 0.05 | 47 | 1015.3 |
| 20260507130024 | 20 | 184 | 20.9 | 30.6 | 0.00 | 0.05 | 0.05 | 48 | 1015.5 |
| 20260507125028 | 20 | 192 | 19.3 | 27.4 | 0.00 | 0.05 | 0.05 | 50 | 1015.5 |
| 20260507124020 | 20 | 196 | 24.1 | 30.6 | 0.00 | 0.05 | 0.05 | 48 | 1015.6 |
| 20260507123048 | 19 | 179 | 19.3 | 29.0 | 0.00 | 0.05 | 0.05 | 62 | 1015.5 |
| 20260507122020 | 18 | 180 | 17.7 | 29.0 | 0.00 | 0.05 | 0.05 | 68 | 1015.6 |
| 20260507121108 | 18 | 189 | 19.3 | 30.6 | 0.00 | 0.05 | 0.05 | 66 | 1015.8 |
| 20260507120020 | 18 | 181 | 22.5 | 30.6 | 0.00 | 0.05 | 0.05 | 71 | 1016.0 |
| 20260507115028 | 18 | 195 | 22.5 | 35.4 | 0.00 | 0.05 | 0.05 | 72 | 1016.0 |
| 20260507114020 | 18 | 176 | 19.3 | 29.0 | 0.00 | 0.05 | 0.05 | 73 | 1015.9 |
| 20260507113029 | 18 | 182 | 22.5 | 30.6 | 0.00 | 0.05 | 0.05 | 75 | 1015.8 |
| 20260507112020 | 18 | 196 | 22.5 | 37.0 | 0.00 | 0.05 | 0.05 | 74 | 1015.9 |
| 20260507111028 | 18 | 171 | 20.9 | 29.0 | 0.00 | 0.05 | 0.05 | 75 | 1015.9 |
| 20260507110020 | 18 | 196 | 20.9 | 30.6 | 0.00 | 0.05 | 0.05 | 74 | 1016.0 |
| 20260507105028 | 17 | 173 | 19.3 | 27.4 | 0.00 | 0.05 | 0.05 | 74 | 1015.9 |
| 20260507104020 | 17 | 168 | 24.1 | 33.8 | 0.00 | 0.05 | 0.05 | 74 | 1015.7 |
| 20260507103029 | 18 | 173 | 22.5 | 33.8 | 0.00 | 0.05 | 0.05 | 74 | 1016.1 |
| 20260507102020 | 18 | 160 | 19.3 | 27.4 | 0.00 | 0.05 | 0.05 | 77 | 1015.8 |
| 20260507101128 | 17 | 148 | 20.9 | 25.7 | 0.00 | 0.05 | 0.05 | 79 | 1015.9 |
| 20260507100020 | 17 | 164 | 22.5 | 29.0 | 0.00 | 0.05 | 0.05 | 78 | 1016.1 |
| 20260507095029 | 18 | 185 | 19.3 | 29.0 | 0.00 | 0.05 | 0.05 | 77 | 1016.5 |
| 20260507094020 | 18 | 156 | 17.7 | 27.4 | 0.00 | 0.05 | 0.05 | 75 | 1015.9 |
| 20260507093028 | 18 | 145 | 19.3 | 29.0 | 0.00 | 0.05 | 0.05 | 75 | 1015.6 |
| 20260507090020 | 18 | 124 | 24.1 | 33.8 | 0.00 | 0.05 | 0.05 | 76 | 1015.4 |
| 20260507085028 | 18 | 137 | 25.7 | 37.0 | 0.00 | 0.05 | 0.05 | 76 | 1015.6 |
| 20260507084020 | 17 | 135 | 22.5 | 37.0 | 0.00 | 0.05 | 0.05 | 81 | 1015.7 |
| 20260507083028 | 17 | 136 | 20.9 | 30.6 | 0.00 | 0.05 | 0.05 | 83 | 1015.9 |
| 20260507082020 | 17 | 144 | 16.1 | 25.7 | 0.00 | 0.05 | 0.05 | 84 | 1016.3 |
| 20260507081049 | 17 | 135 | 14.5 | 22.5 | 0.00 | 0.05 | 0.05 | 85 | 1016.4 |
| 20260507080020 | 17 | 114 | 20.9 | 29.0 | 0.00 | 0.05 | 0.05 | 86 | 1015.9 |
| 20260507075028 | 17 | 130 | 12.9 | 22.5 | 0.00 | 0.05 | 0.05 | 86 | 1016.6 |
| 20260507074020 | 17 | 137 | 11.3 | 17.7 | 0.00 | 0.05 | 0.05 | 87 | 1016.9 |
| 20260507073029 | 17 | 134 | 11.3 | 17.7 | 0.00 | 0.05 | 0.05 | 88 | 1017.1 |
| 20260507072020 | 17 | 141 | 14.5 | 20.9 | 0.00 | 0.05 | 0.05 | 88 | 1017.0 |
| 20260507071028 | 17 | 145 | 12.9 | 17.7 | 0.00 | 0.05 | 0.05 | 89 | 1017.3 |
| 20260507070020 | 17 | 155 | 11.3 | 17.7 | 0.00 | 0.05 | 0.05 | 89 | 1017.3 |
| 20260507065029 | 17 | 143 | 9.7 | 17.7 | 0.00 | 0.05 | 0.05 | 90 | 1017.2 |
| 20260507064020 | 16 | 132 | 8.0 | 12.9 | 0.00 | 0.05 | 0.05 | 91 | 1017.2 |
| 20260507063028 | 16 | 130 | 8.0 | 12.9 | 0.00 | 0.05 | 0.05 | 92 | 1017.0 |
| 20260507062100 | 16 | 99 | 9.7 | 14.5 | 0.00 | 0.05 | 0.05 | 92 | 1016.8 |
| 20260507061029 | 16 | 100 | 9.7 | 16.1 | 0.00 | 0.05 | 0.05 | 93 | 1016.4 |
| 20260507060020 | 16 | 106 | 11.3 | 17.7 | 0.00 | 0.05 | 0.05 | 93 | 1016.7 |
| 20260507055029 | 16 | 132 | 9.7 | 14.5 | 0.00 | 0.05 | 0.05 | 94 | 1016.9 |
| 20260507054020 | 16 | 138 | 6.4 | 11.3 | 0.00 | 0.05 | 0.05 | 94 | 1016.8 |
| 20260507053029 | 15 | 120 | 6.4 | 11.3 | 0.00 | 0.05 | 0.05 | 94 | 1016.8 |
| 20260507052020 | 15 | 107 | 8.0 | 16.1 | 0.00 | 0.05 | 0.05 | 94 | 1016.3 |
| 20260507051029 | 15 | 108 | 12.9 | 17.7 | 0.00 | 0.05 | 0.05 | 94 | 1015.9 |
| 20260507050020 | 15 | 97 | 12.9 | 17.7 | 0.00 | 0.05 | 0.05 | 94 | 1015.4 |
| 20260507045028 | 15 | 78 | 11.3 | 17.7 | 0.00 | 0.05 | 0.05 | 94 | 1015.5 |
| 20260507044020 | 15 | 94 | 11.3 | 14.5 | 0.00 | 0.05 | 0.05 | 94 | 1016.1 |
| 20260507043028 | 15 | 99 | 8.0 | 11.3 | 0.03 | 0.05 | 0.05 | 94 | 1016.3 |
| 20260507042020 | 15 | 104 | 3.2 | 9.7 | 0.03 | 0.05 | 0.05 | 94 | 1016.1 |
| 20260507041029 | 15 | 84 | 4.8 | 9.7 | 0.03 | 0.05 | 0.05 | 94 | 1015.9 |